sensor_id;sensor_type;location;lat;lon;timestamp;temperature;humidity
15257;DHT22;7731;50.720;6.912;2023-08-12T00:01:37;22.70;99.90
15257;DHT22;7731;50.720;6.912;2023-08-12T00:04:08;22.50;99.90
15257;DHT22;7731;50.720;6.912;2023-08-12T00:06:41;22.30;99.90
15257;DHT22;7731;50.720;6.912;2023-08-12T00:09:15;22.40;99.90
15257;DHT22;7731;50.720;6.912;2023-08-12T00:11:45;22.50;99.90
15257;DHT22;7731;50.720;6.912;2023-08-12T00:14:16;22.30;99.90
15257;DHT22;7731;50.720;6.912;2023-08-12T00:16:46;22.10;99.90
15257;DHT22;7731;50.720;6.912;2023-08-12T00:19:19;22.10;99.90
15257;DHT22;7731;50.720;6.912;2023-08-12T00:21:50;22.10;99.90
15257;DHT22;7731;50.720;6.912;2023-08-12T00:24:27;22.20;99.90
15257;DHT22;7731;50.720;6.912;2023-08-12T00:26:57;22.10;99.90
15257;DHT22;7731;50.720;6.912;2023-08-12T00:29:31;22.10;99.90
15257;DHT22;7731;50.720;6.912;2023-08-12T00:32:08;22.00;99.90
15257;DHT22;7731;50.720;6.912;2023-08-12T00:34:38;21.90;99.90
15257;DHT22;7731;50.720;6.912;2023-08-12T00:37:08;21.80;99.90
15257;DHT22;7731;50.720;6.912;2023-08-12T00:39:45;21.90;99.90
15257;DHT22;7731;50.720;6.912;2023-08-12T00:42:16;22.00;99.90
15257;DHT22;7731;50.720;6.912;2023-08-12T00:44:46;22.00;99.90
15257;DHT22;7731;50.720;6.912;2023-08-12T00:47:16;21.90;99.90
15257;DHT22;7731;50.720;6.912;2023-08-12T00:49:47;21.90;99.90
15257;DHT22;7731;50.720;6.912;2023-08-12T00:52:19;22.00;99.90
15257;DHT22;7731;50.720;6.912;2023-08-12T00:54:52;22.10;99.90
15257;DHT22;7731;50.720;6.912;2023-08-12T00:57:26;22.30;99.90
15257;DHT22;7731;50.720;6.912;2023-08-12T01:00:02;22.30;99.90
15257;DHT22;7731;50.720;6.912;2023-08-12T01:02:33;22.20;99.90
15257;DHT22;7731;50.720;6.912;2023-08-12T01:05:05;22.20;99.90
15257;DHT22;7731;50.720;6.912;2023-08-12T01:07:36;22.10;99.90
15257;DHT22;7731;50.720;6.912;2023-08-12T01:10:10;22.20;99.90
15257;DHT22;7731;50.720;6.912;2023-08-12T01:12:47;22.30;99.90
15257;DHT22;7731;50.720;6.912;2023-08-12T01:15:24;22.30;99.90
15257;DHT22;7731;50.720;6.912;2023-08-12T01:17:55;22.30;99.90
15257;DHT22;7731;50.720;6.912;2023-08-12T01:20:31;22.30;99.90
15257;DHT22;7731;50.720;6.912;2023-08-12T01:23:13;22.40;99.90
15257;DHT22;7731;50.720;6.912;2023-08-12T01:25:44;22.30;99.90
15257;DHT22;7731;50.720;6.912;2023-08-12T01:28:14;22.20;99.90
15257;DHT22;7731;50.720;6.912;2023-08-12T01:31:09;22.00;99.90
15257;DHT22;7731;50.720;6.912;2023-08-12T01:33:49;22.00;99.90
15257;DHT22;7731;50.720;6.912;2023-08-12T01:36:26;22.00;99.90
15257;DHT22;7731;50.720;6.912;2023-08-12T01:39:08;21.90;99.90
15257;DHT22;7731;50.720;6.912;2023-08-12T01:41:43;21.90;99.90
15257;DHT22;7731;50.720;6.912;2023-08-12T01:44:22;21.90;99.90
15257;DHT22;7731;50.720;6.912;2023-08-12T01:46:52;21.80;99.90
15257;DHT22;7731;50.720;6.912;2023-08-12T01:49:26;21.80;99.90
15257;DHT22;7731;50.720;6.912;2023-08-12T01:51:59;21.80;99.90
15257;DHT22;7731;50.720;6.912;2023-08-12T01:54:32;21.80;99.90
15257;DHT22;7731;50.720;6.912;2023-08-12T01:57:03;21.70;99.90
15257;DHT22;7731;50.720;6.912;2023-08-12T01:59:36;21.70;99.90
15257;DHT22;7731;50.720;6.912;2023-08-12T02:02:07;21.60;99.90
15257;DHT22;7731;50.720;6.912;2023-08-12T02:04:38;21.70;99.90
15257;DHT22;7731;50.720;6.912;2023-08-12T02:07:13;21.70;99.90
15257;DHT22;7731;50.720;6.912;2023-08-12T02:09:49;21.70;99.90
15257;DHT22;7731;50.720;6.912;2023-08-12T02:12:19;21.70;99.90
15257;DHT22;7731;50.720;6.912;2023-08-12T02:14:49;21.70;99.90
15257;DHT22;7731;50.720;6.912;2023-08-12T02:17:26;21.70;99.90
15257;DHT22;7731;50.720;6.912;2023-08-12T02:20:06;21.60;99.90
15257;DHT22;7731;50.720;6.912;2023-08-12T02:22:37;21.60;99.90
15257;DHT22;7731;50.720;6.912;2023-08-12T02:25:20;21.50;99.90
15257;DHT22;7731;50.720;6.912;2023-08-12T02:27:51;21.50;99.90
15257;DHT22;7731;50.720;6.912;2023-08-12T02:30:24;21.50;99.90
15257;DHT22;7731;50.720;6.912;2023-08-12T02:32:54;21.40;99.90
15257;DHT22;7731;50.720;6.912;2023-08-12T02:35:24;21.40;99.90
15257;DHT22;7731;50.720;6.912;2023-08-12T02:37:55;21.40;99.90
15257;DHT22;7731;50.720;6.912;2023-08-12T02:40:28;21.50;99.90
15257;DHT22;7731;50.720;6.912;2023-08-12T02:43:00;21.50;99.90
15257;DHT22;7731;50.720;6.912;2023-08-12T02:45:31;21.50;99.90
15257;DHT22;7731;50.720;6.912;2023-08-12T02:48:02;21.50;99.90
15257;DHT22;7731;50.720;6.912;2023-08-12T02:50:38;21.50;99.90
15257;DHT22;7731;50.720;6.912;2023-08-12T02:53:09;21.50;99.90
15257;DHT22;7731;50.720;6.912;2023-08-12T02:55:44;21.40;99.90
15257;DHT22;7731;50.720;6.912;2023-08-12T02:58:15;21.40;99.90
15257;DHT22;7731;50.720;6.912;2023-08-12T03:00:54;21.40;99.90
15257;DHT22;7731;50.720;6.912;2023-08-12T03:03:25;21.50;99.90
15257;DHT22;7731;50.720;6.912;2023-08-12T03:05:55;21.50;99.90
15257;DHT22;7731;50.720;6.912;2023-08-12T03:08:29;21.40;99.90
15257;DHT22;7731;50.720;6.912;2023-08-12T03:11:02;21.30;99.90
15257;DHT22;7731;50.720;6.912;2023-08-12T03:13:33;21.30;99.90
15257;DHT22;7731;50.720;6.912;2023-08-12T03:16:03;21.20;99.90
15257;DHT22;7731;50.720;6.912;2023-08-12T03:18:34;21.20;99.90
15257;DHT22;7731;50.720;6.912;2023-08-12T03:21:06;21.10;99.90
15257;DHT22;7731;50.720;6.912;2023-08-12T03:23:37;21.00;99.90
15257;DHT22;7731;50.720;6.912;2023-08-12T03:26:10;21.10;99.90
15257;DHT22;7731;50.720;6.912;2023-08-12T03:28:44;21.10;99.90
15257;DHT22;7731;50.720;6.912;2023-08-12T03:31:14;21.10;99.90
15257;DHT22;7731;50.720;6.912;2023-08-12T03:33:45;21.10;99.90
15257;DHT22;7731;50.720;6.912;2023-08-12T03:36:15;21.10;99.90
15257;DHT22;7731;50.720;6.912;2023-08-12T03:38:45;21.00;99.90
15257;DHT22;7731;50.720;6.912;2023-08-12T03:41:18;21.00;99.90
15257;DHT22;7731;50.720;6.912;2023-08-12T03:43:51;21.00;99.90
15257;DHT22;7731;50.720;6.912;2023-08-12T03:46:21;20.90;99.90
15257;DHT22;7731;50.720;6.912;2023-08-12T03:48:57;20.80;99.90
15257;DHT22;7731;50.720;6.912;2023-08-12T03:51:30;20.70;99.90
15257;DHT22;7731;50.720;6.912;2023-08-12T03:54:00;20.70;99.90
15257;DHT22;7731;50.720;6.912;2023-08-12T03:56:33;20.70;99.90
15257;DHT22;7731;50.720;6.912;2023-08-12T03:59:03;20.70;99.90
15257;DHT22;7731;50.720;6.912;2023-08-12T04:01:34;20.60;99.90
15257;DHT22;7731;50.720;6.912;2023-08-12T04:04:07;20.60;99.90
15257;DHT22;7731;50.720;6.912;2023-08-12T04:06:40;20.50;99.90
15257;DHT22;7731;50.720;6.912;2023-08-12T04:09:15;20.50;99.90
15257;DHT22;7731;50.720;6.912;2023-08-12T04:11:48;20.40;99.90
15257;DHT22;7731;50.720;6.912;2023-08-12T04:14:18;20.50;99.90
15257;DHT22;7731;50.720;6.912;2023-08-12T04:16:48;20.40;99.90
15257;DHT22;7731;50.720;6.912;2023-08-12T04:19:22;20.40;99.90
15257;DHT22;7731;50.720;6.912;2023-08-12T04:21:52;20.40;99.90
15257;DHT22;7731;50.720;6.912;2023-08-12T04:24:23;20.40;99.90
15257;DHT22;7731;50.720;6.912;2023-08-12T04:26:56;20.40;99.90
15257;DHT22;7731;50.720;6.912;2023-08-12T04:29:29;20.40;99.90
15257;DHT22;7731;50.720;6.912;2023-08-12T04:31:59;20.40;99.90
15257;DHT22;7731;50.720;6.912;2023-08-12T04:34:30;20.40;99.90
15257;DHT22;7731;50.720;6.912;2023-08-12T04:37:03;20.40;99.90
15257;DHT22;7731;50.720;6.912;2023-08-12T04:39:33;20.40;99.90
15257;DHT22;7731;50.720;6.912;2023-08-12T04:42:06;20.40;99.90
15257;DHT22;7731;50.720;6.912;2023-08-12T04:44:42;20.50;99.90
15257;DHT22;7731;50.720;6.912;2023-08-12T04:47:12;20.50;99.90
15257;DHT22;7731;50.720;6.912;2023-08-12T04:49:42;20.50;99.90
15257;DHT22;7731;50.720;6.912;2023-08-12T04:52:12;20.50;99.90
15257;DHT22;7731;50.720;6.912;2023-08-12T04:54:43;20.50;99.90
15257;DHT22;7731;50.720;6.912;2023-08-12T04:57:16;20.60;99.90
15257;DHT22;7731;50.720;6.912;2023-08-12T04:59:46;20.90;99.90
15257;DHT22;7731;50.720;6.912;2023-08-12T05:02:17;21.10;99.90
15257;DHT22;7731;50.720;6.912;2023-08-12T05:04:50;21.30;99.90
15257;DHT22;7731;50.720;6.912;2023-08-12T05:07:21;21.40;99.90
15257;DHT22;7731;50.720;6.912;2023-08-12T05:09:53;21.60;99.90
15257;DHT22;7731;50.720;6.912;2023-08-12T05:12:32;21.70;99.90
15257;DHT22;7731;50.720;6.912;2023-08-12T05:15:03;21.80;99.90
15257;DHT22;7731;50.720;6.912;2023-08-12T05:17:34;21.90;99.90
15257;DHT22;7731;50.720;6.912;2023-08-12T05:20:06;22.00;99.90
15257;DHT22;7731;50.720;6.912;2023-08-12T05:22:38;22.10;99.90
15257;DHT22;7731;50.720;6.912;2023-08-12T05:25:11;22.10;99.90
15257;DHT22;7731;50.720;6.912;2023-08-12T05:27:44;22.10;99.90
15257;DHT22;7731;50.720;6.912;2023-08-12T05:30:14;22.00;99.90
15257;DHT22;7731;50.720;6.912;2023-08-12T05:32:44;21.90;99.90
15257;DHT22;7731;50.720;6.912;2023-08-12T05:35:15;21.90;99.90
15257;DHT22;7731;50.720;6.912;2023-08-12T05:37:45;21.90;99.90
15257;DHT22;7731;50.720;6.912;2023-08-12T05:40:18;21.90;99.90
15257;DHT22;7731;50.720;6.912;2023-08-12T05:42:51;21.80;99.90
15257;DHT22;7731;50.720;6.912;2023-08-12T05:45:24;21.70;99.90
15257;DHT22;7731;50.720;6.912;2023-08-12T05:48:00;21.60;99.90
15257;DHT22;7731;50.720;6.912;2023-08-12T05:50:31;21.50;99.90
15257;DHT22;7731;50.720;6.912;2023-08-12T05:53:24;21.40;99.90
15257;DHT22;7731;50.720;6.912;2023-08-12T05:55:54;21.20;99.90
15257;DHT22;7731;50.720;6.912;2023-08-12T05:58:27;21.20;99.90
15257;DHT22;7731;50.720;6.912;2023-08-12T06:00:57;21.20;99.90
15257;DHT22;7731;50.720;6.912;2023-08-12T06:03:30;21.10;99.90
15257;DHT22;7731;50.720;6.912;2023-08-12T06:06:00;21.00;99.90
15257;DHT22;7731;50.720;6.912;2023-08-12T06:08:38;20.80;99.90
15257;DHT22;7731;50.720;6.912;2023-08-12T06:11:08;20.60;99.90
15257;DHT22;7731;50.720;6.912;2023-08-12T06:13:41;20.50;99.90
15257;DHT22;7731;50.720;6.912;2023-08-12T06:16:12;20.40;99.90
15257;DHT22;7731;50.720;6.912;2023-08-12T06:18:42;20.40;99.90
15257;DHT22;7731;50.720;6.912;2023-08-12T06:21:15;20.30;99.90
15257;DHT22;7731;50.720;6.912;2023-08-12T06:23:50;20.30;99.90
15257;DHT22;7731;50.720;6.912;2023-08-12T06:26:21;20.30;99.90
15257;DHT22;7731;50.720;6.912;2023-08-12T06:29:02;20.20;99.90
15257;DHT22;7731;50.720;6.912;2023-08-12T06:31:35;20.10;99.90
15257;DHT22;7731;50.720;6.912;2023-08-12T06:34:05;20.10;99.90
15257;DHT22;7731;50.720;6.912;2023-08-12T06:36:39;20.20;99.90
15257;DHT22;7731;50.720;6.912;2023-08-12T06:39:09;20.20;99.90
15257;DHT22;7731;50.720;6.912;2023-08-12T06:41:40;20.40;99.90
15257;DHT22;7731;50.720;6.912;2023-08-12T06:44:13;20.60;99.90
15257;DHT22;7731;50.720;6.912;2023-08-12T06:46:43;20.70;99.90
15257;DHT22;7731;50.720;6.912;2023-08-12T06:49:14;20.90;99.90
15257;DHT22;7731;50.720;6.912;2023-08-12T06:51:45;21.10;99.90
15257;DHT22;7731;50.720;6.912;2023-08-12T06:54:18;21.20;99.90
15257;DHT22;7731;50.720;6.912;2023-08-12T06:56:50;21.30;99.90
15257;DHT22;7731;50.720;6.912;2023-08-12T06:59:23;21.40;99.90
15257;DHT22;7731;50.720;6.912;2023-08-12T07:01:55;21.50;99.90
15257;DHT22;7731;50.720;6.912;2023-08-12T07:04:34;21.70;99.90
15257;DHT22;7731;50.720;6.912;2023-08-12T07:07:04;21.80;99.90
15257;DHT22;7731;50.720;6.912;2023-08-12T07:09:34;21.90;99.90
15257;DHT22;7731;50.720;6.912;2023-08-12T07:12:05;22.00;99.90
15257;DHT22;7731;50.720;6.912;2023-08-12T07:14:42;22.10;99.90
15257;DHT22;7731;50.720;6.912;2023-08-12T07:17:15;22.20;99.90
15257;DHT22;7731;50.720;6.912;2023-08-12T07:19:45;22.30;99.90
15257;DHT22;7731;50.720;6.912;2023-08-12T07:22:19;22.30;99.90
15257;DHT22;7731;50.720;6.912;2023-08-12T07:24:49;22.30;99.90
15257;DHT22;7731;50.720;6.912;2023-08-12T07:27:19;22.30;99.90
15257;DHT22;7731;50.720;6.912;2023-08-12T07:29:59;22.20;99.90
15257;DHT22;7731;50.720;6.912;2023-08-12T07:32:32;22.40;99.90
15257;DHT22;7731;50.720;6.912;2023-08-12T07:35:03;22.50;99.90
15257;DHT22;7731;50.720;6.912;2023-08-12T07:37:41;22.70;99.90
15257;DHT22;7731;50.720;6.912;2023-08-12T07:40:16;22.50;99.90
15257;DHT22;7731;50.720;6.912;2023-08-12T07:42:50;22.70;99.90
15257;DHT22;7731;50.720;6.912;2023-08-12T07:45:22;23.10;99.90
15257;DHT22;7731;50.720;6.912;2023-08-12T07:47:53;23.40;99.90
15257;DHT22;7731;50.720;6.912;2023-08-12T07:50:23;23.80;99.90
15257;DHT22;7731;50.720;6.912;2023-08-12T07:52:54;24.00;99.90
15257;DHT22;7731;50.720;6.912;2023-08-12T07:55:24;24.00;99.90
15257;DHT22;7731;50.720;6.912;2023-08-12T07:57:57;24.10;99.90
15257;DHT22;7731;50.720;6.912;2023-08-12T08:00:30;24.20;99.90
15257;DHT22;7731;50.720;6.912;2023-08-12T08:03:02;24.20;99.90
15257;DHT22;7731;50.720;6.912;2023-08-12T08:05:33;24.60;99.90
15257;DHT22;7731;50.720;6.912;2023-08-12T08:08:04;25.20;99.90
15257;DHT22;7731;50.720;6.912;2023-08-12T08:10:35;25.60;99.90
15257;DHT22;7731;50.720;6.912;2023-08-12T08:13:05;25.30;99.90
15257;DHT22;7731;50.720;6.912;2023-08-12T08:15:38;25.00;99.90
15257;DHT22;7731;50.720;6.912;2023-08-12T08:18:08;24.80;99.90
15257;DHT22;7731;50.720;6.912;2023-08-12T08:20:42;24.50;99.90
15257;DHT22;7731;50.720;6.912;2023-08-12T08:23:15;24.30;99.90
15257;DHT22;7731;50.720;6.912;2023-08-12T08:25:46;24.10;99.90
15257;DHT22;7731;50.720;6.912;2023-08-12T08:28:16;24.10;99.90
15257;DHT22;7731;50.720;6.912;2023-08-12T08:30:52;24.10;99.90
15257;DHT22;7731;50.720;6.912;2023-08-12T08:33:26;24.20;99.90
15257;DHT22;7731;50.720;6.912;2023-08-12T08:36:04;24.20;99.90
15257;DHT22;7731;50.720;6.912;2023-08-12T08:38:35;24.40;99.90
15257;DHT22;7731;50.720;6.912;2023-08-12T08:41:09;24.70;99.90
15257;DHT22;7731;50.720;6.912;2023-08-12T08:43:43;24.80;99.90
15257;DHT22;7731;50.720;6.912;2023-08-12T08:46:17;25.00;99.90
15257;DHT22;7731;50.720;6.912;2023-08-12T08:48:48;25.30;99.90
15257;DHT22;7731;50.720;6.912;2023-08-12T08:51:30;25.50;99.90
15257;DHT22;7731;50.720;6.912;2023-08-12T08:54:04;25.80;99.90
15257;DHT22;7731;50.720;6.912;2023-08-12T08:56:38;26.50;99.90
15257;DHT22;7731;50.720;6.912;2023-08-12T08:59:26;27.60;99.90
15257;DHT22;7731;50.720;6.912;2023-08-12T09:01:59;28.30;56.10
15257;DHT22;7731;50.720;6.912;2023-08-12T09:04:31;27.80;94.60
15257;DHT22;7731;50.720;6.912;2023-08-12T09:07:02;27.20;99.90
15257;DHT22;7731;50.720;6.912;2023-08-12T09:09:33;26.60;99.90
15257;DHT22;7731;50.720;6.912;2023-08-12T09:12:08;26.10;99.90
15257;DHT22;7731;50.720;6.912;2023-08-12T09:14:42;25.90;99.90
15257;DHT22;7731;50.720;6.912;2023-08-12T09:17:21;25.50;99.90
15257;DHT22;7731;50.720;6.912;2023-08-12T09:19:55;25.00;99.90
15257;DHT22;7731;50.720;6.912;2023-08-12T09:22:28;24.90;99.90
15257;DHT22;7731;50.720;6.912;2023-08-12T09:24:59;24.70;99.90
15257;DHT22;7731;50.720;6.912;2023-08-12T09:27:31;24.60;99.90
15257;DHT22;7731;50.720;6.912;2023-08-12T09:30:03;24.50;99.90
15257;DHT22;7731;50.720;6.912;2023-08-12T09:32:58;24.50;99.90
15257;DHT22;7731;50.720;6.912;2023-08-12T09:35:33;24.40;99.90
15257;DHT22;7731;50.720;6.912;2023-08-12T09:38:05;24.40;99.90
15257;DHT22;7731;50.720;6.912;2023-08-12T09:40:37;24.40;99.90
15257;DHT22;7731;50.720;6.912;2023-08-12T09:43:09;24.40;99.90
15257;DHT22;7731;50.720;6.912;2023-08-12T09:45:40;24.50;99.90
15257;DHT22;7731;50.720;6.912;2023-08-12T09:48:13;24.70;99.90
15257;DHT22;7731;50.720;6.912;2023-08-12T09:50:46;25.10;99.90
15257;DHT22;7731;50.720;6.912;2023-08-12T09:53:17;25.50;99.90
15257;DHT22;7731;50.720;6.912;2023-08-12T09:55:50;25.90;99.90
15257;DHT22;7731;50.720;6.912;2023-08-12T09:58:24;25.80;99.90
15257;DHT22;7731;50.720;6.912;2023-08-12T10:00:57;25.20;99.90
15257;DHT22;7731;50.720;6.912;2023-08-12T10:03:33;25.00;99.90
15257;DHT22;7731;50.720;6.912;2023-08-12T10:06:05;24.80;99.90
15257;DHT22;7731;50.720;6.912;2023-08-12T10:08:36;24.90;99.90
15257;DHT22;7731;50.720;6.912;2023-08-12T10:11:08;25.20;99.90
15257;DHT22;7731;50.720;6.912;2023-08-12T10:13:42;25.60;99.90
15257;DHT22;7731;50.720;6.912;2023-08-12T10:16:13;26.10;99.90
15257;DHT22;7731;50.720;6.912;2023-08-12T10:18:48;26.80;99.90
15257;DHT22;7731;50.720;6.912;2023-08-12T10:21:21;27.00;99.90
15257;DHT22;7731;50.720;6.912;2023-08-12T10:23:56;26.90;99.90
15257;DHT22;7731;50.720;6.912;2023-08-12T10:26:38;26.70;99.90
15257;DHT22;7731;50.720;6.912;2023-08-12T10:29:11;26.70;99.90
15257;DHT22;7731;50.720;6.912;2023-08-12T10:31:41;27.00;99.90
15257;DHT22;7731;50.720;6.912;2023-08-12T10:34:23;26.90;99.90
15257;DHT22;7731;50.720;6.912;2023-08-12T10:37:01;27.00;99.90
15257;DHT22;7731;50.720;6.912;2023-08-12T10:39:34;27.30;99.90
15257;DHT22;7731;50.720;6.912;2023-08-12T10:42:06;27.20;99.90
15257;DHT22;7731;50.720;6.912;2023-08-12T10:44:49;27.20;99.90
15257;DHT22;7731;50.720;6.912;2023-08-12T10:47:21;27.20;99.90
15257;DHT22;7731;50.720;6.912;2023-08-12T10:49:54;27.20;99.90
15257;DHT22;7731;50.720;6.912;2023-08-12T10:52:34;26.90;99.90
15257;DHT22;7731;50.720;6.912;2023-08-12T10:55:18;26.70;99.90
15257;DHT22;7731;50.720;6.912;2023-08-12T10:57:50;26.20;99.90
15257;DHT22;7731;50.720;6.912;2023-08-12T11:00:25;25.80;99.90
15257;DHT22;7731;50.720;6.912;2023-08-12T11:02:58;25.40;99.90
15257;DHT22;7731;50.720;6.912;2023-08-12T11:05:41;25.30;99.90
15257;DHT22;7731;50.720;6.912;2023-08-12T11:08:14;25.20;99.90
15257;DHT22;7731;50.720;6.912;2023-08-12T11:10:56;25.20;99.90
15257;DHT22;7731;50.720;6.912;2023-08-12T11:13:32;25.20;99.90
15257;DHT22;7731;50.720;6.912;2023-08-12T11:16:17;25.20;99.90
15257;DHT22;7731;50.720;6.912;2023-08-12T11:18:57;25.20;99.90
15257;DHT22;7731;50.720;6.912;2023-08-12T11:21:34;25.30;99.90
15257;DHT22;7731;50.720;6.912;2023-08-12T11:24:06;25.30;99.90
15257;DHT22;7731;50.720;6.912;2023-08-12T11:26:38;25.30;99.90
15257;DHT22;7731;50.720;6.912;2023-08-12T11:29:11;25.50;99.90
15257;DHT22;7731;50.720;6.912;2023-08-12T11:31:44;25.90;99.90
15257;DHT22;7731;50.720;6.912;2023-08-12T11:34:15;26.30;99.90
15257;DHT22;7731;50.720;6.912;2023-08-12T11:36:57;26.90;99.90
15257;DHT22;7731;50.720;6.912;2023-08-12T11:39:30;27.50;73.90
15257;DHT22;7731;50.720;6.912;2023-08-12T11:42:01;27.70;41.20
15257;DHT22;7731;50.720;6.912;2023-08-12T11:44:31;27.90;44.70
15257;DHT22;7731;50.720;6.912;2023-08-12T11:47:02;28.20;26.30
15257;DHT22;7731;50.720;6.912;2023-08-12T11:49:32;28.20;42.10
15257;DHT22;7731;50.720;6.912;2023-08-12T11:52:08;29.10;15.00
15257;DHT22;7731;50.720;6.912;2023-08-12T11:54:43;29.30;1.00
15257;DHT22;7731;50.720;6.912;2023-08-12T11:57:14;28.80;1.00
15257;DHT22;7731;50.720;6.912;2023-08-12T11:59:44;28.10;28.80
15257;DHT22;7731;50.720;6.912;2023-08-12T12:02:17;28.10;21.90
15257;DHT22;7731;50.720;6.912;2023-08-12T12:04:58;28.20;37.80
15257;DHT22;7731;50.720;6.912;2023-08-12T12:07:31;28.40;18.70
15257;DHT22;7731;50.720;6.912;2023-08-12T12:10:03;28.30;17.70
15257;DHT22;7731;50.720;6.912;2023-08-12T12:12:35;28.10;15.20
15257;DHT22;7731;50.720;6.912;2023-08-12T12:15:07;27.70;46.30
15257;DHT22;7731;50.720;6.912;2023-08-12T12:17:42;27.30;59.80
15257;DHT22;7731;50.720;6.912;2023-08-12T12:20:14;27.20;1.00
15257;DHT22;7731;50.720;6.912;2023-08-12T12:22:50;27.10;1.00
15257;DHT22;7731;50.720;6.912;2023-08-12T12:25:22;26.80;1.00
15257;DHT22;7731;50.720;6.912;2023-08-12T12:27:53;26.50;26.70
15257;DHT22;7731;50.720;6.912;2023-08-12T12:30:23;26.10;45.10
15257;DHT22;7731;50.720;6.912;2023-08-12T12:32:54;26.10;45.50
15257;DHT22;7731;50.720;6.912;2023-08-12T12:35:31;26.20;44.60
15257;DHT22;7731;50.720;6.912;2023-08-12T12:38:25;26.30;53.10
15257;DHT22;7731;50.720;6.912;2023-08-12T12:44:28;26.70;1.00
15257;DHT22;7731;50.720;6.912;2023-08-12T12:46:58;26.60;1.50
15257;DHT22;7731;50.720;6.912;2023-08-12T12:49:29;26.70;3.90
15257;DHT22;7731;50.720;6.912;2023-08-12T12:52:03;27.00;1.00
15257;DHT22;7731;50.720;6.912;2023-08-12T12:54:36;27.60;1.00
15257;DHT22;7731;50.720;6.912;2023-08-12T12:57:06;28.10;1.00
15257;DHT22;7731;50.720;6.912;2023-08-12T12:59:36;28.50;1.00
15257;DHT22;7731;50.720;6.912;2023-08-12T13:02:07;28.60;1.00
15257;DHT22;7731;50.720;6.912;2023-08-12T13:04:41;28.80;1.00
15257;DHT22;7731;50.720;6.912;2023-08-12T13:07:11;28.80;1.00
15257;DHT22;7731;50.720;6.912;2023-08-12T13:09:47;28.50;1.00
15257;DHT22;7731;50.720;6.912;2023-08-12T13:12:17;28.10;1.00
15257;DHT22;7731;50.720;6.912;2023-08-12T13:14:47;28.00;1.00
15257;DHT22;7731;50.720;6.912;2023-08-12T13:17:17;28.10;1.00
15257;DHT22;7731;50.720;6.912;2023-08-12T13:19:48;28.40;1.00
15257;DHT22;7731;50.720;6.912;2023-08-12T13:22:18;28.70;1.00
15257;DHT22;7731;50.720;6.912;2023-08-12T13:24:51;29.00;1.00
15257;DHT22;7731;50.720;6.912;2023-08-12T13:27:22;29.00;99.90
15257;DHT22;7731;50.720;6.912;2023-08-12T13:29:53;28.90;99.90
15257;DHT22;7731;50.720;6.912;2023-08-12T13:32:23;28.70;1.00
15257;DHT22;7731;50.720;6.912;2023-08-12T13:34:53;28.00;1.00
15257;DHT22;7731;50.720;6.912;2023-08-12T13:37:24;27.40;1.00
15257;DHT22;7731;50.720;6.912;2023-08-12T13:39:56;26.20;63.50
15257;DHT22;7731;50.720;6.912;2023-08-12T13:42:30;25.20;99.90
15257;DHT22;7731;50.720;6.912;2023-08-12T13:45:07;24.80;99.90
15257;DHT22;7731;50.720;6.912;2023-08-12T13:47:40;24.70;99.90
15257;DHT22;7731;50.720;6.912;2023-08-12T13:53:46;25.00;99.90
15257;DHT22;7731;50.720;6.912;2023-08-12T13:56:20;25.00;99.90
15257;DHT22;7731;50.720;6.912;2023-08-12T13:58:58;25.00;99.90
15257;DHT22;7731;50.720;6.912;2023-08-12T14:01:28;25.30;99.90
15257;DHT22;7731;50.720;6.912;2023-08-12T14:03:59;25.80;99.90
15257;DHT22;7731;50.720;6.912;2023-08-12T14:06:29;26.20;97.10
15257;DHT22;7731;50.720;6.912;2023-08-12T14:09:02;26.10;99.90
15257;DHT22;7731;50.720;6.912;2023-08-12T14:11:38;26.30;73.00
15257;DHT22;7731;50.720;6.912;2023-08-12T14:14:08;26.30;75.00
15257;DHT22;7731;50.720;6.912;2023-08-12T14:16:48;26.30;62.80
15257;DHT22;7731;50.720;6.912;2023-08-12T14:19:19;26.30;45.00
15257;DHT22;7731;50.720;6.912;2023-08-12T14:21:49;26.50;29.80
15257;DHT22;7731;50.720;6.912;2023-08-12T14:24:29;26.70;20.10
15257;DHT22;7731;50.720;6.912;2023-08-12T14:27:02;26.90;12.00
15257;DHT22;7731;50.720;6.912;2023-08-12T14:29:33;27.00;6.50
15257;DHT22;7731;50.720;6.912;2023-08-12T14:32:06;27.10;1.00
15257;DHT22;7731;50.720;6.912;2023-08-12T14:34:36;27.30;1.00
15257;DHT22;7731;50.720;6.912;2023-08-12T14:37:12;27.00;1.00
15257;DHT22;7731;50.720;6.912;2023-08-12T14:39:42;27.20;1.00
15257;DHT22;7731;50.720;6.912;2023-08-12T14:42:18;27.30;1.00
15257;DHT22;7731;50.720;6.912;2023-08-12T14:44:48;27.20;1.00
15257;DHT22;7731;50.720;6.912;2023-08-12T14:47:19;27.20;1.00
15257;DHT22;7731;50.720;6.912;2023-08-12T14:49:49;26.80;1.00
15257;DHT22;7731;50.720;6.912;2023-08-12T14:52:20;26.70;1.00
15257;DHT22;7731;50.720;6.912;2023-08-12T14:54:51;26.40;1.00
15257;DHT22;7731;50.720;6.912;2023-08-12T14:57:24;26.00;1.00
15257;DHT22;7731;50.720;6.912;2023-08-12T14:59:54;25.70;1.00
15257;DHT22;7731;50.720;6.912;2023-08-12T15:02:25;25.40;1.00
15257;DHT22;7731;50.720;6.912;2023-08-12T15:05:03;25.40;1.00
15257;DHT22;7731;50.720;6.912;2023-08-12T15:07:33;25.40;1.00
15257;DHT22;7731;50.720;6.912;2023-08-12T15:10:04;25.30;5.80
15257;DHT22;7731;50.720;6.912;2023-08-12T15:12:41;25.20;27.60
15257;DHT22;7731;50.720;6.912;2023-08-12T15:15:12;25.20;13.60
15257;DHT22;7731;50.720;6.912;2023-08-12T15:17:45;25.20;25.00
15257;DHT22;7731;50.720;6.912;2023-08-12T15:20:18;25.40;7.70
15257;DHT22;7731;50.720;6.912;2023-08-12T15:22:51;25.70;1.00
15257;DHT22;7731;50.720;6.912;2023-08-12T15:25:21;25.80;1.00
15257;DHT22;7731;50.720;6.912;2023-08-12T15:27:54;26.00;1.00
15257;DHT22;7731;50.720;6.912;2023-08-12T15:30:24;26.10;1.00
15257;DHT22;7731;50.720;6.912;2023-08-12T15:32:55;25.70;1.00
15257;DHT22;7731;50.720;6.912;2023-08-12T15:35:26;25.50;1.00
15257;DHT22;7731;50.720;6.912;2023-08-12T15:37:56;25.50;1.00
15257;DHT22;7731;50.720;6.912;2023-08-12T15:40:27;25.30;1.00
15257;DHT22;7731;50.720;6.912;2023-08-12T15:43:00;25.20;1.00
15257;DHT22;7731;50.720;6.912;2023-08-12T15:45:30;25.00;1.00
15257;DHT22;7731;50.720;6.912;2023-08-12T15:48:04;24.90;1.00
15257;DHT22;7731;50.720;6.912;2023-08-12T15:50:35;24.80;1.00
15257;DHT22;7731;50.720;6.912;2023-08-12T15:53:08;24.90;1.00
15257;DHT22;7731;50.720;6.912;2023-08-12T15:55:42;25.00;1.00
15257;DHT22;7731;50.720;6.912;2023-08-12T15:58:15;25.00;1.00
15257;DHT22;7731;50.720;6.912;2023-08-12T16:00:49;25.00;1.00
15257;DHT22;7731;50.720;6.912;2023-08-12T16:03:22;24.90;1.00
15257;DHT22;7731;50.720;6.912;2023-08-12T16:05:56;24.80;1.00
15257;DHT22;7731;50.720;6.912;2023-08-12T16:08:28;24.70;1.00
15257;DHT22;7731;50.720;6.912;2023-08-12T16:11:06;24.80;1.00
15257;DHT22;7731;50.720;6.912;2023-08-12T16:13:42;24.90;1.00
15257;DHT22;7731;50.720;6.912;2023-08-12T16:16:12;24.80;1.00
15257;DHT22;7731;50.720;6.912;2023-08-12T16:18:43;24.70;1.00
15257;DHT22;7731;50.720;6.912;2023-08-12T16:21:16;24.70;1.00
15257;DHT22;7731;50.720;6.912;2023-08-12T16:23:46;24.80;1.00
15257;DHT22;7731;50.720;6.912;2023-08-12T16:26:16;24.70;1.00
15257;DHT22;7731;50.720;6.912;2023-08-12T16:28:52;24.60;8.40
15257;DHT22;7731;50.720;6.912;2023-08-12T16:31:22;24.60;1.00
15257;DHT22;7731;50.720;6.912;2023-08-12T16:33:56;24.70;1.00